createdAt,value
2017-07-28T00:00:50.681Z,1001.64
2017-07-28T00:01:44.608Z,1001.63
2017-07-28T00:02:45.824Z,1001.66
2017-07-28T00:03:45.825Z,1001.64
2017-07-28T00:04:46.056Z,1001.65
2017-07-28T00:05:40.905Z,1001.63
2017-07-28T00:06:34.921Z,1001.65
2017-07-28T00:07:34.899Z,1001.65
2017-07-28T00:08:30.217Z,1001.67
2017-07-28T00:09:25.387Z,1001.67
2017-07-28T00:10:26.015Z,1001.66
2017-07-28T00:11:26.688Z,1001.65
2017-07-28T00:12:26.096Z,1001.68
2017-07-28T00:13:21.233Z,1001.70
2017-07-28T00:14:15.198Z,1001.65
2017-07-28T00:15:16.400Z,1001.71
2017-07-28T00:16:16.273Z,1001.68
2017-07-28T00:17:16.288Z,1001.68
2017-07-28T00:18:16.334Z,1001.71
2017-07-28T00:19:22.274Z,1001.72
2017-07-28T00:20:17.339Z,1001.70
2017-07-28T00:21:17.397Z,1001.71
2017-07-28T00:22:11.439Z,1001.73
2017-07-28T00:23:12.568Z,1001.69
2017-07-28T00:24:12.483Z,1001.70
2017-07-28T00:25:07.489Z,1001.76
2017-07-28T00:26:07.619Z,1001.78
2017-07-28T00:27:01.649Z,1001.78
2017-07-28T00:28:01.717Z,1001.79
2017-07-28T00:28:56.749Z,1001.76
2017-07-28T00:29:56.857Z,1001.77
2017-07-28T00:30:56.861Z,1001.77
2017-07-28T00:31:57.071Z,1001.78
2017-07-28T00:32:50.927Z,1001.79
2017-07-28T00:33:50.830Z,1001.76
2017-07-28T00:34:46.026Z,1001.79
2017-07-28T00:35:40.843Z,1001.79
2017-07-28T00:36:40.921Z,1001.78
2017-07-28T00:37:35.971Z,1001.79
2017-07-28T00:38:31.391Z,1001.72
2017-07-28T00:39:32.064Z,1001.73
2017-07-28T00:40:32.419Z,1001.80
2017-07-28T00:41:32.171Z,1001.79
2017-07-28T00:42:27.174Z,1001.78
2017-07-28T00:43:21.257Z,1001.79
2017-07-28T00:44:21.302Z,1001.78
2017-07-28T00:45:16.234Z,1001.80
2017-07-28T00:46:16.391Z,1001.79
2017-07-28T00:47:10.508Z,1001.81
2017-07-28T00:48:11.461Z,1001.79
2017-07-28T00:49:12.411Z,1001.79
2017-07-28T00:50:07.661Z,1001.79
2017-07-28T00:51:01.471Z,1001.75
2017-07-28T00:52:01.577Z,1001.77
2017-07-28T00:52:56.665Z,1001.79
2017-07-28T00:53:56.695Z,1001.74
2017-07-28T00:54:50.810Z,1001.75
2017-07-28T00:55:50.746Z,1001.76
2017-07-28T00:56:45.744Z,1001.73
2017-07-28T00:57:40.959Z,1001.71
2017-07-28T00:58:40.774Z,1001.73
2017-07-28T00:59:35.891Z,1001.72
2017-07-28T01:00:36.132Z,1001.69
2017-07-28T01:01:35.898Z,1001.68
2017-07-28T01:02:35.933Z,1001.70
2017-07-28T01:03:30.087Z,1001.70
2017-07-28T01:04:30.061Z,1001.66
2017-07-28T01:05:24.958Z,1001.67
2017-07-28T01:06:20.038Z,1001.62
2017-07-28T01:07:20.053Z,1001.66
2017-07-28T01:08:15.146Z,1001.67
2017-07-28T01:09:10.215Z,1001.62
2017-07-28T01:10:11.670Z,1001.65
2017-07-28T01:11:11.573Z,1001.60
2017-07-28T01:12:11.250Z,1001.66
2017-07-28T01:13:11.408Z,1001.61
2017-07-28T01:14:12.424Z,1001.62
2017-07-28T01:15:13.796Z,1001.60
2017-07-28T01:16:07.521Z,1001.62
2017-07-28T01:17:07.483Z,1001.63
2017-07-28T01:18:02.480Z,1001.65
2017-07-28T01:18:57.540Z,1001.66
2017-07-28T01:19:58.078Z,1001.69
2017-07-28T01:20:52.620Z,1001.70
2017-07-28T01:21:47.590Z,1001.73
2017-07-28T01:22:47.641Z,1001.73
2017-07-28T01:23:42.690Z,1001.74
2017-07-28T01:24:37.699Z,1001.79
2017-07-28T01:25:38.848Z,1001.81
2017-07-28T01:26:38.829Z,1001.75
2017-07-28T01:27:38.849Z,1001.76
2017-07-28T01:28:33.808Z,1001.77
2017-07-28T01:29:27.901Z,1001.76
2017-07-28T01:30:27.887Z,1001.79
2017-07-28T01:31:23.062Z,1001.84
2017-07-28T01:32:22.990Z,1001.82
2017-07-28T01:33:17.062Z,1001.88
2017-07-28T01:34:17.012Z,1001.87
2017-07-28T01:35:12.600Z,1001.88
2017-07-28T01:36:07.515Z,1001.85
2017-07-28T01:37:07.241Z,1001.85
2017-07-28T01:38:02.298Z,1001.88
2017-07-28T01:38:57.313Z,1001.91
2017-07-28T01:39:58.679Z,1001.93
2017-07-28T01:40:58.309Z,1001.89
2017-07-28T01:41:58.386Z,1001.93
2017-07-28T01:42:58.450Z,1001.93
2017-07-28T01:43:59.395Z,1001.94
2017-07-28T01:45:00.873Z,1001.95
2017-07-28T01:45:54.492Z,1001.91
2017-07-28T01:46:54.527Z,1001.92
2017-07-28T01:47:49.519Z,1001.93
2017-07-28T01:48:44.725Z,1001.93
2017-07-28T01:49:45.086Z,1001.94
2017-07-28T01:50:39.857Z,1001.96
2017-07-28T01:51:34.683Z,1001.93
2017-07-28T01:52:34.803Z,1001.95
2017-07-28T01:53:29.811Z,1001.94
2017-07-28T01:54:24.796Z,1001.97
2017-07-28T01:55:25.981Z,1001.95
2017-07-28T01:56:25.789Z,1001.92
2017-07-28T01:57:25.826Z,1001.94
2017-07-28T01:58:20.905Z,1001.92
2017-07-28T01:59:20.950Z,1001.94
2017-07-28T02:00:21.346Z,1001.95
2017-07-28T02:01:21.062Z,1001.91
2017-07-28T02:02:21.137Z,1001.94
2017-07-28T02:03:21.100Z,1001.90
2017-07-28T02:04:21.194Z,1001.88
2017-07-28T02:05:21.353Z,1001.89
2017-07-28T02:06:16.183Z,1001.99
2017-07-28T02:07:11.218Z,1001.96
2017-07-28T02:08:12.556Z,1002.00
2017-07-28T02:09:12.590Z,1002.02
2017-07-28T02:10:12.870Z,1001.99
2017-07-28T02:11:07.370Z,1002.05
2017-07-28T02:12:01.609Z,1002.07
2017-07-28T02:13:01.536Z,1002.09
2017-07-28T02:13:56.443Z,1002.13
2017-07-28T02:14:56.514Z,1002.15
2017-07-28T02:15:50.548Z,1002.13
2017-07-28T02:16:50.608Z,1002.12
2017-07-28T02:17:45.728Z,1002.20
2017-07-28T02:18:45.821Z,1002.25
2017-07-28T02:19:45.762Z,1002.22
2017-07-28T02:20:45.751Z,1002.28
2017-07-28T02:21:40.445Z,1002.24
2017-07-28T02:22:40.787Z,1002.27
2017-07-28T02:23:46.875Z,1002.29
2017-07-28T02:24:46.855Z,1002.25
2017-07-28T02:25:46.924Z,1002.23
2017-07-28T02:26:46.994Z,1002.21
2017-07-28T02:27:41.991Z,1002.22
2017-07-28T02:28:37.017Z,1002.22
2017-07-28T02:29:37.334Z,1002.21
2017-07-28T02:30:32.366Z,1002.24
2017-07-28T02:31:27.097Z,1002.28
2017-07-28T02:32:27.173Z,1002.28
2017-07-28T02:33:22.178Z,1002.28
2017-07-28T02:34:17.194Z,1002.26
2017-07-28T02:35:18.340Z,1002.28
2017-07-28T02:36:18.314Z,1002.30
2017-07-28T02:37:18.263Z,1002.30
2017-07-28T02:38:13.332Z,1002.32
2017-07-28T02:39:07.323Z,1002.32
2017-07-28T02:40:07.347Z,1002.33
2017-07-28T02:41:02.464Z,1002.32
2017-07-28T02:42:02.427Z,1002.31
2017-07-28T02:42:56.532Z,1002.30
2017-07-28T02:43:56.849Z,1002.32
2017-07-28T02:44:51.661Z,1002.26
2017-07-28T02:45:46.561Z,1002.29
2017-07-28T02:46:46.661Z,1002.27
2017-07-28T02:47:41.709Z,1002.27
2017-07-28T02:48:42.118Z,1002.27
2017-07-28T02:49:41.782Z,1002.26
2017-07-28T02:50:41.709Z,1002.31
2017-07-28T02:51:35.936Z,1002.26
2017-07-28T02:52:36.189Z,1002.27
2017-07-28T02:53:31.053Z,1002.30
2017-07-28T02:54:25.887Z,1002.33
2017-07-28T02:55:26.973Z,1002.30
2017-07-28T02:56:27.010Z,1002.33
2017-07-28T02:57:26.955Z,1002.29
2017-07-28T02:58:22.258Z,1002.28
2017-07-28T02:59:22.112Z,1002.31
2017-07-28T03:00:28.094Z,1002.31
2017-07-28T03:01:23.085Z,1002.30
2017-07-28T03:02:24.182Z,1002.33
2017-07-28T03:03:24.471Z,1002.38
2017-07-28T03:04:19.240Z,1002.37
2017-07-28T03:05:25.232Z,1002.39
2017-07-28T03:06:20.307Z,1002.37
2017-07-28T03:07:14.351Z,1002.40
2017-07-28T03:08:14.353Z,1002.40
2017-07-28T03:09:14.438Z,1002.37
2017-07-28T03:10:09.569Z,1002.35
2017-07-28T03:11:03.533Z,1002.34
2017-07-28T03:12:03.506Z,1002.36
2017-07-28T03:12:58.570Z,1002.34
2017-07-28T03:13:53.589Z,1002.30
2017-07-28T03:14:54.983Z,1002.32
2017-07-28T03:15:55.008Z,1002.30
2017-07-28T03:16:55.052Z,1002.27
2017-07-28T03:17:54.653Z,1002.28
2017-07-28T03:18:55.995Z,1002.27
2017-07-28T03:19:57.110Z,1002.27
2017-07-28T03:20:50.837Z,1002.28
2017-07-28T03:21:51.823Z,1002.27
2017-07-28T03:22:51.921Z,1002.29
2017-07-28T03:23:46.971Z,1002.31
2017-07-28T03:24:46.996Z,1002.29
2017-07-28T03:25:47.377Z,1002.33
2017-07-28T03:26:46.982Z,1002.35
2017-07-28T03:27:41.193Z,1002.33
2017-07-28T03:28:41.014Z,1002.38
2017-07-28T03:29:35.575Z,1002.37
2017-07-28T03:30:24.199Z,1002.38
2017-07-28T03:31:19.150Z,1002.42
2017-07-28T03:32:14.197Z,1002.46
2017-07-28T03:33:09.216Z,1002.43
2017-07-28T03:34:04.256Z,1002.44
2017-07-28T03:34:58.330Z,1002.43
2017-07-28T03:35:46.572Z,1002.43
2017-07-28T03:36:35.706Z,1002.48
2017-07-28T03:37:29.525Z,1002.46
2017-07-28T03:38:23.508Z,1002.52
2017-07-28T03:39:17.551Z,1002.50
2017-07-28T03:40:07.015Z,1002.48
2017-07-28T03:41:06.616Z,1002.52
2017-07-28T03:42:00.593Z,1002.47
2017-07-28T03:42:54.641Z,1002.47
2017-07-28T03:43:48.720Z,1002.45
2017-07-28T03:44:48.882Z,1002.48
2017-07-28T03:45:42.783Z,1002.52
2017-07-28T03:46:44.352Z,1002.47
2017-07-28T03:47:44.687Z,1002.48
2017-07-28T03:48:32.936Z,1002.48
2017-07-28T03:49:22.140Z,1002.50
2017-07-28T03:50:09.944Z,1002.50
2017-07-28T03:50:57.957Z,1002.49
2017-07-28T03:51:47.033Z,1002.50
2017-07-28T03:52:36.100Z,1002.51
2017-07-28T03:53:30.156Z,1002.53
2017-07-28T03:54:24.228Z,1002.54
2017-07-28T03:55:13.258Z,1002.56
2017-07-28T03:56:01.248Z,1002.57
2017-07-28T03:56:50.300Z,1002.54
2017-07-28T03:57:38.313Z,1002.55
2017-07-28T03:58:26.420Z,1002.58
2017-07-28T03:59:15.765Z,1002.56
2017-07-28T04:00:03.513Z,1002.57
2017-07-28T04:00:51.751Z,1002.55
2017-07-28T04:01:45.583Z,1002.60
2017-07-28T04:02:39.596Z,1002.56
2017-07-28T04:03:33.714Z,1002.56
2017-07-28T04:04:34.635Z,1002.58
2017-07-28T04:05:28.796Z,1002.62
2017-07-28T04:06:23.703Z,1002.60
2017-07-28T04:07:24.813Z,1002.62
2017-07-28T04:08:18.945Z,1002.56
2017-07-28T04:09:06.908Z,1002.62
2017-07-28T04:10:00.885Z,1002.63
2017-07-28T04:10:54.941Z,1002.63
2017-07-28T04:11:50.088Z,1002.60
2017-07-28T04:12:44.088Z,1002.56
2017-07-28T04:13:39.298Z,1002.59
2017-07-28T04:14:39.468Z,1002.58
2017-07-28T04:15:34.591Z,1002.56
2017-07-28T04:16:29.459Z,1002.57
2017-07-28T04:17:24.541Z,1002.65
2017-07-28T04:18:18.530Z,1002.65
2017-07-28T04:19:12.719Z,1002.67
2017-07-28T04:20:07.691Z,1002.64
2017-07-28T04:21:02.151Z,1002.67
2017-07-28T04:22:01.371Z,1002.65
2017-07-28T04:23:01.758Z,1002.58
2017-07-28T04:23:55.503Z,1002.65
2017-07-28T04:24:56.914Z,1002.69
2017-07-28T04:25:56.624Z,1002.62
2017-07-28T04:26:56.677Z,1002.68
2017-07-28T04:27:50.828Z,1002.63
2017-07-28T04:28:38.681Z,1002.64
2017-07-28T04:29:33.136Z,1002.67
2017-07-28T04:30:21.716Z,1002.71
2017-07-28T04:31:15.860Z,1002.74
2017-07-28T04:32:11.008Z,1002.67
2017-07-28T04:33:05.891Z,1002.74
2017-07-28T04:34:00.014Z,1002.74
2017-07-28T04:35:00.125Z,1002.77
2017-07-28T04:35:54.228Z,1002.74
2017-07-28T04:36:54.995Z,1002.77
2017-07-28T04:37:49.528Z,1002.73
2017-07-28T04:38:38.535Z,1002.74
2017-07-28T04:39:33.637Z,1002.78
2017-07-28T04:40:21.082Z,1002.81
2017-07-28T04:41:22.525Z,1002.82
2017-07-28T04:42:16.237Z,1002.83
2017-07-28T04:43:05.593Z,1002.81
2017-07-28T04:44:00.865Z,1002.83
2017-07-28T04:44:55.463Z,1002.81
2017-07-28T04:45:50.600Z,1002.85
2017-07-28T04:46:44.474Z,1002.87
2017-07-28T04:47:44.943Z,1002.92
2017-07-28T04:48:44.517Z,1002.88
2017-07-28T04:49:44.825Z,1002.89
2017-07-28T04:50:44.551Z,1002.95
2017-07-28T04:51:45.041Z,1002.92
2017-07-28T04:52:39.079Z,1002.98
2017-07-28T04:53:32.878Z,1002.93
2017-07-28T04:54:22.245Z,1002.97
2017-07-28T04:55:21.865Z,1002.92
2017-07-28T04:56:10.854Z,1002.91
2017-07-28T04:57:12.101Z,1002.93
2017-07-28T04:58:11.932Z,1002.88
2017-07-28T04:59:06.961Z,1002.91
2017-07-28T05:00:07.225Z,1002.93
2017-07-28T05:01:02.044Z,1002.91
2017-07-28T05:01:56.047Z,1002.96
2017-07-28T05:02:56.146Z,1002.93
2017-07-28T05:03:50.579Z,1002.92
2017-07-28T05:04:50.149Z,1002.96
2017-07-28T05:05:45.260Z,1002.97
2017-07-28T05:06:40.388Z,1002.98
2017-07-28T05:07:40.273Z,1002.95
2017-07-28T05:08:35.375Z,1003.01
2017-07-28T05:09:30.343Z,1003.00
2017-07-28T05:10:24.736Z,1003.00
2017-07-28T05:11:19.709Z,1002.97
2017-07-28T05:12:13.579Z,1002.98
2017-07-28T05:13:02.626Z,1003.00
2017-07-28T05:13:57.577Z,1002.99
2017-07-28T05:14:57.709Z,1003.02
2017-07-28T05:15:53.103Z,1003.03
2017-07-28T05:16:48.098Z,1003.04
2017-07-28T05:17:42.112Z,1003.00
2017-07-28T05:18:37.112Z,1002.98
2017-07-28T05:19:31.218Z,1002.95
2017-07-28T05:20:25.156Z,1003.03
2017-07-28T05:21:19.225Z,1003.05
2017-07-28T05:22:13.040Z,1003.00
2017-07-28T05:23:08.039Z,1002.90
2017-07-28T05:24:09.068Z,1002.90
2017-07-28T05:25:04.285Z,1002.93
2017-07-28T05:25:58.293Z,1002.94
2017-07-28T05:26:58.193Z,1003.02
2017-07-28T05:27:53.563Z,1003.11
2017-07-28T05:28:41.442Z,1003.10
2017-07-28T05:29:35.828Z,1003.09
2017-07-28T05:30:35.370Z,1003.10
2017-07-28T05:31:35.585Z,1003.09
2017-07-28T05:32:35.440Z,1003.13
2017-07-28T05:33:24.558Z,1003.10
2017-07-28T05:34:13.623Z,1003.02
2017-07-28T05:35:07.829Z,1002.95
2017-07-28T05:36:02.960Z,1002.95
2017-07-28T05:36:51.937Z,1002.91
2017-07-28T05:37:52.007Z,1002.93
2017-07-28T05:38:46.061Z,1002.98
2017-07-28T05:39:34.200Z,1002.98
2017-07-28T05:40:35.146Z,1002.97
2017-07-28T05:41:29.192Z,1003.03
2017-07-28T05:42:23.219Z,1003.17
2017-07-28T05:43:23.266Z,1003.13
2017-07-28T05:44:12.472Z,1003.17
2017-07-28T05:45:07.387Z,1003.13
2017-07-28T05:46:01.506Z,1003.15
2017-07-28T05:46:56.595Z,1003.19
2017-07-28T05:47:50.554Z,1003.19
2017-07-28T05:48:45.298Z,1003.21
2017-07-28T05:49:40.274Z,1003.19
2017-07-28T05:50:40.314Z,1003.26
2017-07-28T05:51:29.510Z,1003.23
2017-07-28T05:52:23.426Z,1003.26
2017-07-28T05:53:29.542Z,1003.22
2017-07-28T05:54:23.611Z,1003.29
2017-07-28T05:55:18.868Z,1003.27
2017-07-28T05:56:13.951Z,1003.35
2017-07-28T05:57:07.687Z,1003.41
2017-07-28T05:58:01.885Z,1003.40
2017-07-28T05:58:56.730Z,1003.34
2017-07-28T05:59:51.229Z,1003.31
2017-07-28T06:00:45.108Z,1003.44
2017-07-28T06:01:45.115Z,1003.47
2017-07-28T06:02:38.953Z,1003.54
2017-07-28T06:03:39.157Z,1003.51
2017-07-28T06:04:33.641Z,1003.53
2017-07-28T06:05:28.345Z,1003.45
2017-07-28T06:06:16.424Z,1003.52
2017-07-28T06:07:05.504Z,1003.41
2017-07-28T06:07:54.521Z,1003.45
2017-07-28T06:08:49.581Z,1003.45
2017-07-28T06:09:49.757Z,1003.49
2017-07-28T06:10:43.748Z,1003.40
2017-07-28T06:11:31.808Z,1003.28
2017-07-28T06:12:31.761Z,1003.37
2017-07-28T06:13:26.784Z,1003.40
2017-07-28T06:14:26.902Z,1003.54
2017-07-28T06:15:20.904Z,1003.51
2017-07-28T06:16:10.080Z,1003.47
2017-07-28T06:16:58.166Z,1003.50
2017-07-28T06:17:47.118Z,1003.61
2017-07-28T06:18:36.224Z,1003.64
2017-07-28T06:19:30.167Z,1003.61
2017-07-28T06:20:30.285Z,1003.48
2017-07-28T06:21:25.410Z,1003.49
2017-07-28T06:22:25.383Z,1003.50
2017-07-28T06:23:19.469Z,1003.64
2017-07-28T06:24:08.411Z,1003.61
2017-07-28T06:25:02.497Z,1003.49
2017-07-28T06:25:51.596Z,1003.48
2017-07-28T06:26:46.641Z,1003.41
2017-07-28T06:27:40.742Z,1003.58
2017-07-28T06:28:35.824Z,1003.63
2017-07-28T06:29:24.748Z,1003.60
2017-07-28T06:30:19.842Z,1003.62
2017-07-28T06:31:19.711Z,1003.61
2017-07-28T06:32:08.558Z,1003.64
2017-07-28T06:33:03.146Z,1003.67
2017-07-28T06:33:57.125Z,1003.84
2017-07-28T06:34:52.074Z,1003.82
2017-07-28T06:35:46.241Z,1003.65
2017-07-28T06:36:41.194Z,1003.69
2017-07-28T06:37:41.246Z,1003.77
2017-07-28T06:38:36.386Z,1003.74
2017-07-28T06:39:30.343Z,1003.68
2017-07-28T06:40:25.419Z,1003.69
2017-07-28T06:41:25.408Z,1003.70
2017-07-28T06:42:25.586Z,1003.73
2017-07-28T06:43:14.581Z,1003.74
2017-07-28T06:44:14.645Z,1003.74
2017-07-28T06:45:08.673Z,1003.66
2017-07-28T06:46:02.804Z,1003.88
2017-07-28T06:46:56.748Z,1003.84
2017-07-28T06:47:51.746Z,1003.80
2017-07-28T06:48:52.954Z,1003.84
2017-07-28T06:49:47.068Z,1003.90
2017-07-28T06:50:40.988Z,1003.81
2017-07-28T06:51:34.949Z,1003.98
2017-07-28T06:52:30.107Z,1003.92
2017-07-28T06:53:23.786Z,1003.91
2017-07-28T06:54:13.145Z,1003.97
2017-07-28T06:55:13.230Z,1003.89
2017-07-28T06:56:06.927Z,1004.02
2017-07-28T06:57:01.131Z,1004.10
2017-07-28T06:57:55.015Z,1004.06
2017-07-28T06:58:50.066Z,1004.02
2017-07-28T06:59:45.115Z,1004.11
2017-07-28T07:00:33.509Z,1004.11
2017-07-28T07:01:22.175Z,1004.24
2017-07-28T07:02:16.620Z,1004.16
2017-07-28T07:03:16.741Z,1004.29
2017-07-28T07:04:11.783Z,1004.24
2017-07-28T07:04:59.730Z,1004.33
2017-07-28T07:05:54.958Z,1004.22
2017-07-28T07:06:48.807Z,1004.13
2017-07-28T07:07:49.021Z,1004.17
2017-07-28T07:08:43.995Z,1004.18
2017-07-28T07:09:39.046Z,1004.31
2017-07-28T07:10:33.059Z,1004.32
2017-07-28T07:11:28.177Z,1004.33
2017-07-28T07:12:22.203Z,1004.29
2017-07-28T07:13:16.241Z,1004.24
2017-07-28T07:14:11.193Z,1004.26
2017-07-28T07:15:12.268Z,1004.19
2017-07-28T07:16:13.365Z,1004.14
2017-07-28T07:17:07.442Z,1004.26
2017-07-28T07:18:07.451Z,1004.23
2017-07-28T07:19:01.537Z,1004.28
2017-07-28T07:19:55.566Z,1004.28
2017-07-28T07:20:49.633Z,1004.40
2017-07-28T07:21:43.512Z,1004.41
2017-07-28T07:22:37.760Z,1004.48
2017-07-28T07:23:26.808Z,1004.40
2017-07-28T07:24:20.363Z,1004.38
2017-07-28T07:25:15.841Z,1004.39
2017-07-28T07:26:15.593Z,1004.34
2017-07-28T07:27:04.776Z,1004.34
2017-07-28T07:27:59.823Z,1004.31
2017-07-28T07:28:59.958Z,1004.41
2017-07-28T07:29:54.044Z,1004.36
2017-07-28T07:30:49.176Z,1004.33
2017-07-28T07:31:38.192Z,1004.33
2017-07-28T07:32:32.198Z,1004.38
2017-07-28T07:33:26.362Z,1004.51
2017-07-28T07:34:20.363Z,1004.64
2017-07-28T07:35:20.410Z,1004.52
2017-07-28T07:36:14.194Z,1004.49
2017-07-28T07:37:08.123Z,1004.53
2017-07-28T07:38:02.483Z,1004.49
2017-07-28T07:39:02.501Z,1004.45
2017-07-28T07:39:56.430Z,1004.39
2017-07-28T07:40:57.367Z,1004.46
2017-07-28T07:41:51.592Z,1004.48
2017-07-28T07:42:40.860Z,1004.43
2017-07-28T07:43:28.775Z,1004.41
2017-07-28T07:44:23.857Z,1004.43
2017-07-28T07:45:18.939Z,1004.34
2017-07-28T07:46:19.010Z,1004.33
2017-07-28T07:47:07.040Z,1004.44
2017-07-28T07:48:00.823Z,1004.45
2017-07-28T07:48:50.087Z,1004.37
2017-07-28T07:49:44.061Z,1004.43
2017-07-28T07:50:43.778Z,1004.50
2017-07-28T07:51:38.092Z,1004.51
2017-07-28T07:52:38.227Z,1004.43
2017-07-28T07:53:32.419Z,1004.39
2017-07-28T07:54:33.160Z,1004.39
2017-07-28T07:55:22.058Z,1004.44
2017-07-28T07:56:16.165Z,1004.50
2017-07-28T07:57:10.371Z,1004.51
2017-07-28T07:58:05.452Z,1004.68
2017-07-28T07:59:00.465Z,1004.73
2017-07-28T07:59:54.723Z,1004.62
2017-07-28T08:00:48.641Z,1004.51
2017-07-28T08:01:48.765Z,1004.64
2017-07-28T08:02:42.712Z,1004.58
2017-07-28T08:03:42.832Z,1004.60
2017-07-28T08:04:37.999Z,1004.58
2017-07-28T08:05:25.713Z,1004.51
2017-07-28T08:06:27.341Z,1004.62
2017-07-28T08:07:21.112Z,1004.58
2017-07-28T08:08:15.094Z,1004.50
2017-07-28T08:09:10.219Z,1004.62
2017-07-28T08:09:59.214Z,1004.52
2017-07-28T08:10:48.211Z,1004.41
2017-07-28T08:11:37.427Z,1004.47
2017-07-28T08:12:31.384Z,1004.55
2017-07-28T08:13:26.371Z,1004.59
2017-07-28T08:14:26.290Z,1004.62
2017-07-28T08:15:21.437Z,1004.60
2017-07-28T08:16:09.517Z,1004.53
2017-07-28T08:17:09.672Z,1004.61
2017-07-28T08:18:03.562Z,1004.61
2017-07-28T08:18:57.447Z,1004.59
2017-07-28T08:19:51.841Z,1004.59
2017-07-28T08:20:52.755Z,1004.48
2017-07-28T08:21:46.815Z,1004.53
2017-07-28T08:22:40.869Z,1004.41
2017-07-28T08:23:35.889Z,1004.45
2017-07-28T08:24:35.926Z,1004.58
2017-07-28T08:25:31.038Z,1004.50
2017-07-28T08:26:30.988Z,1004.55
2017-07-28T08:27:25.102Z,1004.60
2017-07-28T08:28:26.324Z,1004.67
2017-07-28T08:29:26.149Z,1004.71
2017-07-28T08:30:20.208Z,1004.55
2017-07-28T08:31:15.305Z,1004.75
2017-07-28T08:32:15.393Z,1004.71
2017-07-28T08:33:10.150Z,1004.78
2017-07-28T08:34:05.338Z,1004.73
2017-07-28T08:35:00.324Z,1004.80
2017-07-28T08:35:54.247Z,1004.65
2017-07-28T08:36:43.631Z,1004.64
2017-07-28T08:37:38.695Z,1004.60
2017-07-28T08:38:32.829Z,1004.63
2017-07-28T08:39:26.869Z,1004.62
2017-07-28T08:40:20.872Z,1004.74
2017-07-28T08:41:15.858Z,1004.73
2017-07-28T08:42:03.868Z,1004.72
2017-07-28T08:42:52.942Z,1004.70
2017-07-28T08:43:47.921Z,1004.70
2017-07-28T08:44:36.097Z,1004.62
2017-07-28T08:45:31.245Z,1004.55
2017-07-28T08:46:31.240Z,1004.53
2017-07-28T08:47:20.374Z,1004.50
2017-07-28T08:48:14.301Z,1004.61
2017-07-28T08:49:14.294Z,1004.64
2017-07-28T08:50:03.453Z,1004.59
2017-07-28T08:50:58.442Z,1004.58
2017-07-28T08:51:46.614Z,1004.62
2017-07-28T08:52:46.565Z,1004.60
2017-07-28T08:53:40.691Z,1004.64
2017-07-28T08:54:35.700Z,1004.51
2017-07-28T08:55:29.705Z,1004.56
2017-07-28T08:56:24.753Z,1004.55
2017-07-28T08:57:13.867Z,1004.60
2017-07-28T08:58:13.800Z,1004.74
2017-07-28T08:59:07.919Z,1004.74
2017-07-28T09:00:02.107Z,1004.69
2017-07-28T09:00:56.018Z,1004.71
2017-07-28T09:01:50.037Z,1004.65
2017-07-28T09:02:44.127Z,1004.59
2017-07-28T09:03:38.205Z,1004.71
2017-07-28T09:04:33.222Z,1004.70
2017-07-28T09:05:27.224Z,1004.85
2017-07-28T09:06:16.402Z,1004.75
2017-07-28T09:07:16.376Z,1004.81
2017-07-28T09:08:10.435Z,1004.86
2017-07-28T09:09:11.561Z,1004.99
2017-07-28T09:10:05.560Z,1004.86
2017-07-28T09:10:53.648Z,1004.76
2017-07-28T09:11:54.776Z,1004.66
2017-07-28T09:12:54.733Z,1004.69
2017-07-28T09:13:48.711Z,1004.68
2017-07-28T09:14:42.820Z,1004.69
2017-07-28T09:15:37.848Z,1004.79
2017-07-28T09:16:32.916Z,1004.89
2017-07-28T09:17:21.048Z,1004.92
2017-07-28T09:18:15.029Z,1004.76
2017-07-28T09:19:09.070Z,1004.68
2017-07-28T09:19:58.078Z,1004.81
2017-07-28T09:20:53.100Z,1004.80
2017-07-28T09:21:47.278Z,1004.55
2017-07-28T09:22:42.284Z,1004.49
2017-07-28T09:23:31.267Z,1004.78
2017-07-28T09:24:20.403Z,1004.50
2017-07-28T09:25:09.533Z,1004.76
2017-07-28T09:26:09.623Z,1004.91
2017-07-28T09:26:58.573Z,1004.85
2017-07-28T09:27:58.616Z,1004.85
2017-07-28T09:28:53.714Z,1004.55
2017-07-28T09:29:53.834Z,1004.43
2017-07-28T09:30:47.771Z,1004.44
2017-07-28T09:31:41.876Z,1004.46
2017-07-28T09:32:30.892Z,1004.54
2017-07-28T09:33:25.064Z,1004.54
2017-07-28T09:34:25.034Z,1004.68
2017-07-28T09:35:19.137Z,1004.71
2017-07-28T09:36:13.157Z,1004.61
2017-07-28T09:37:07.287Z,1004.57
2017-07-28T09:37:56.299Z,1004.56
2017-07-28T09:38:45.399Z,1004.50
2017-07-28T09:39:33.395Z,1004.57
2017-07-28T09:40:28.408Z,1004.66
2017-07-28T09:41:22.541Z,1004.74
2017-07-28T09:42:10.592Z,1004.79
2017-07-28T09:43:10.619Z,1004.97
2017-07-28T09:44:05.065Z,1004.82
2017-07-28T09:44:58.813Z,1004.76
2017-07-28T09:45:53.779Z,1005.06
2017-07-28T09:46:47.864Z,1005.22
2017-07-28T09:47:42.878Z,1004.98
2017-07-28T09:48:32.022Z,1004.91
2017-07-28T09:49:26.149Z,1004.98
2017-07-28T09:50:20.186Z,1004.92
2017-07-28T09:51:15.187Z,1005.30
2017-07-28T09:52:09.110Z,1005.22
2017-07-28T09:53:03.188Z,1005.03
2017-07-28T09:53:57.356Z,1004.83
2017-07-28T09:54:52.397Z,1004.92
2017-07-28T09:55:40.474Z,1004.97
2017-07-28T09:56:40.557Z,1005.00
2017-07-28T09:57:34.533Z,1004.91
2017-07-28T09:58:29.663Z,1004.84
2017-07-28T09:59:18.820Z,1004.91
2017-07-28T10:00:12.779Z,1004.76
2017-07-28T10:01:01.861Z,1004.77
2017-07-28T10:01:56.875Z,1004.98
2017-07-28T10:02:44.890Z,1004.80
2017-07-28T10:03:38.900Z,1004.60
2017-07-28T10:04:28.015Z,1004.48
2017-07-28T10:05:28.219Z,1004.77
2017-07-28T10:06:17.091Z,1004.66
2017-07-28T10:07:12.199Z,1004.46
2017-07-28T10:08:01.293Z,1004.45
2017-07-28T10:08:56.265Z,1004.45
2017-07-28T10:09:50.346Z,1004.62
2017-07-28T10:10:44.455Z,1004.62
2017-07-28T10:11:39.510Z,1004.59
2017-07-28T10:12:27.439Z,1004.66
2017-07-28T10:13:22.562Z,1004.67
2017-07-28T10:14:16.664Z,1004.67
2017-07-28T10:15:11.783Z,1004.81
2017-07-28T10:16:00.160Z,1004.86
2017-07-28T10:16:48.048Z,1004.74
2017-07-28T10:17:41.886Z,1004.75
2017-07-28T10:18:36.915Z,1004.70
2017-07-28T10:19:38.052Z,1004.82
2017-07-28T10:20:27.098Z,1004.65
2017-07-28T10:21:21.344Z,1004.90
2017-07-28T10:22:21.275Z,1005.04
2017-07-28T10:23:21.259Z,1005.11
2017-07-28T10:24:15.347Z,1004.73
2017-07-28T10:25:04.373Z,1005.04
2017-07-28T10:25:59.482Z,1004.97
2017-07-28T10:26:53.626Z,1004.99
2017-07-28T10:27:53.636Z,1004.95
2017-07-28T10:28:41.643Z,1004.83
2017-07-28T10:29:30.698Z,1004.97
2017-07-28T10:30:24.704Z,1004.76
2017-07-28T10:31:18.881Z,1004.85
2017-07-28T10:32:12.915Z,1004.70
2017-07-28T10:33:01.964Z,1004.70
2017-07-28T10:33:55.967Z,1004.36
2017-07-28T10:34:50.992Z,1004.77
2017-07-28T10:35:46.200Z,1004.85
2017-07-28T10:36:34.227Z,1004.86
2017-07-28T10:37:28.537Z,1004.63
2017-07-28T10:38:28.358Z,1004.43
2017-07-28T10:39:22.390Z,1004.40
2017-07-28T10:40:17.497Z,1004.69
2017-07-28T10:41:11.496Z,1004.54
2017-07-28T10:42:00.561Z,1004.64
2017-07-28T10:43:00.741Z,1004.81
2017-07-28T10:43:54.750Z,1004.93
2017-07-28T10:44:49.833Z,1004.96
2017-07-28T10:45:44.886Z,1004.95
2017-07-28T10:46:38.945Z,1004.65
2017-07-28T10:47:32.993Z,1004.83
2017-07-28T10:48:27.028Z,1004.89
2017-07-28T10:49:16.100Z,1004.76
2017-07-28T10:50:10.219Z,1004.72
2017-07-28T10:50:59.254Z,1004.65
2017-07-28T10:51:53.221Z,1004.70
2017-07-28T10:52:48.285Z,1004.78
2017-07-28T10:53:42.476Z,1004.71
2017-07-28T10:54:31.454Z,1004.75
2017-07-28T10:55:25.569Z,1004.70
2017-07-28T10:56:19.551Z,1004.67
2017-07-28T10:57:13.640Z,1004.67
2017-07-28T10:58:07.749Z,1004.63
2017-07-28T10:59:01.831Z,1004.66
2017-07-28T10:59:50.805Z,1004.67
2017-07-28T11:00:45.948Z,1004.68
2017-07-28T11:01:34.978Z,1004.69
2017-07-28T11:02:29.066Z,1004.92
2017-07-28T11:03:29.092Z,1005.15
2017-07-28T11:04:24.177Z,1005.33
2017-07-28T11:05:24.177Z,1005.38
2017-07-28T11:06:18.298Z,1005.29
2017-07-28T11:07:12.310Z,1005.39
2017-07-28T11:08:06.331Z,1005.41
2017-07-28T11:09:06.357Z,1005.30
2017-07-28T11:10:01.802Z,1005.16
2017-07-28T11:10:55.608Z,1005.20